sensor_id;sensor_type;location;lat;lon;timestamp;temperature;humidity
18101;DHT22;9177;49.156;8.142;2023-09-19T00:00:25;24.90;99.90
18101;DHT22;9177;49.156;8.142;2023-09-19T00:02:53;24.90;99.90
18101;DHT22;9177;49.156;8.142;2023-09-19T00:05:20;24.90;99.90
18101;DHT22;9177;49.156;8.142;2023-09-19T00:07:50;24.90;99.90
18101;DHT22;9177;49.156;8.142;2023-09-19T00:10:19;24.90;99.90
18101;DHT22;9177;49.156;8.142;2023-09-19T00:12:50;24.90;99.90
18101;DHT22;9177;49.156;8.142;2023-09-19T00:15:19;24.80;99.90
18101;DHT22;9177;49.156;8.142;2023-09-19T00:17:47;24.80;99.90
18101;DHT22;9177;49.156;8.142;2023-09-19T00:20:14;24.80;99.90
18101;DHT22;9177;49.156;8.142;2023-09-19T00:22:45;24.80;99.90
18101;DHT22;9177;49.156;8.142;2023-09-19T00:25:15;24.80;99.90
18101;DHT22;9177;49.156;8.142;2023-09-19T00:27:42;24.80;99.90
18101;DHT22;9177;49.156;8.142;2023-09-19T00:30:12;24.80;99.90
18101;DHT22;9177;49.156;8.142;2023-09-19T00:32:42;24.80;99.90
18101;DHT22;9177;49.156;8.142;2023-09-19T00:35:10;24.80;99.90
18101;DHT22;9177;49.156;8.142;2023-09-19T00:37:37;24.80;99.90
18101;DHT22;9177;49.156;8.142;2023-09-19T00:40:06;24.80;99.90
18101;DHT22;9177;49.156;8.142;2023-09-19T00:42:38;24.80;99.90
18101;DHT22;9177;49.156;8.142;2023-09-19T00:45:06;24.80;99.90
18101;DHT22;9177;49.156;8.142;2023-09-19T00:47:35;24.80;99.90
18101;DHT22;9177;49.156;8.142;2023-09-19T00:50:04;24.80;99.90
18101;DHT22;9177;49.156;8.142;2023-09-19T00:52:33;24.80;99.90
18101;DHT22;9177;49.156;8.142;2023-09-19T00:55:03;24.80;99.90
18101;DHT22;9177;49.156;8.142;2023-09-19T00:57:34;24.80;99.90
18101;DHT22;9177;49.156;8.142;2023-09-19T01:00:02;24.80;99.90
18101;DHT22;9177;49.156;8.142;2023-09-19T01:02:33;24.80;99.90
18101;DHT22;9177;49.156;8.142;2023-09-19T01:05:05;24.80;99.90
18101;DHT22;9177;49.156;8.142;2023-09-19T01:07:33;24.80;99.90
18101;DHT22;9177;49.156;8.142;2023-09-19T01:10:00;24.80;99.90
18101;DHT22;9177;49.156;8.142;2023-09-19T01:12:35;24.80;99.90
18101;DHT22;9177;49.156;8.142;2023-09-19T01:15:11;24.80;99.90
18101;DHT22;9177;49.156;8.142;2023-09-19T01:17:45;24.80;99.90
18101;DHT22;9177;49.156;8.142;2023-09-19T01:20:34;24.80;99.90
18101;DHT22;9177;49.156;8.142;2023-09-19T01:23:12;24.80;99.90
18101;DHT22;9177;49.156;8.142;2023-09-19T01:26:15;24.80;99.90
18101;DHT22;9177;49.156;8.142;2023-09-19T01:29:01;24.80;99.90
18101;DHT22;9177;49.156;8.142;2023-09-19T01:31:37;24.80;99.90
18101;DHT22;9177;49.156;8.142;2023-09-19T01:34:06;24.80;99.90
18101;DHT22;9177;49.156;8.142;2023-09-19T01:36:35;24.80;99.90
18101;DHT22;9177;49.156;8.142;2023-09-19T01:39:05;24.80;99.90
18101;DHT22;9177;49.156;8.142;2023-09-19T01:41:45;24.80;99.90
18101;DHT22;9177;49.156;8.142;2023-09-19T01:44:19;24.80;99.90
18101;DHT22;9177;49.156;8.142;2023-09-19T01:46:49;24.80;99.90
18101;DHT22;9177;49.156;8.142;2023-09-19T01:49:31;24.80;99.90
18101;DHT22;9177;49.156;8.142;2023-09-19T01:52:04;24.80;99.90
18101;DHT22;9177;49.156;8.142;2023-09-19T01:54:36;24.80;99.90
18101;DHT22;9177;49.156;8.142;2023-09-19T01:57:11;24.80;99.90
18101;DHT22;9177;49.156;8.142;2023-09-19T01:59:43;24.80;99.90
18101;DHT22;9177;49.156;8.142;2023-09-19T02:02:14;24.80;99.90
18101;DHT22;9177;49.156;8.142;2023-09-19T02:04:41;24.80;99.90
18101;DHT22;9177;49.156;8.142;2023-09-19T02:07:08;24.70;99.90
18101;DHT22;9177;49.156;8.142;2023-09-19T02:09:35;24.70;99.90
18101;DHT22;9177;49.156;8.142;2023-09-19T02:12:05;24.80;99.90
18101;DHT22;9177;49.156;8.142;2023-09-19T02:14:32;24.80;99.90
18101;DHT22;9177;49.156;8.142;2023-09-19T02:17:01;24.80;99.90
18101;DHT22;9177;49.156;8.142;2023-09-19T02:19:31;24.80;99.90
18101;DHT22;9177;49.156;8.142;2023-09-19T02:21:59;24.80;99.90
18101;DHT22;9177;49.156;8.142;2023-09-19T02:24:28;24.80;99.90
18101;DHT22;9177;49.156;8.142;2023-09-19T02:26:56;24.70;99.90
18101;DHT22;9177;49.156;8.142;2023-09-19T02:29:24;24.70;99.90
18101;DHT22;9177;49.156;8.142;2023-09-19T02:31:52;24.80;99.90
18101;DHT22;9177;49.156;8.142;2023-09-19T02:34:21;24.80;99.90
18101;DHT22;9177;49.156;8.142;2023-09-19T02:36:50;24.80;99.90
18101;DHT22;9177;49.156;8.142;2023-09-19T02:39:22;24.80;99.90
18101;DHT22;9177;49.156;8.142;2023-09-19T02:41:50;24.80;99.90
18101;DHT22;9177;49.156;8.142;2023-09-19T02:44:17;24.70;99.90
18101;DHT22;9177;49.156;8.142;2023-09-19T02:46:45;24.80;99.90
18101;DHT22;9177;49.156;8.142;2023-09-19T02:49:12;24.80;99.90
18101;DHT22;9177;49.156;8.142;2023-09-19T02:51:39;24.80;99.90
18101;DHT22;9177;49.156;8.142;2023-09-19T02:54:08;24.80;99.90
18101;DHT22;9177;49.156;8.142;2023-09-19T02:56:35;24.80;99.90
18101;DHT22;9177;49.156;8.142;2023-09-19T02:59:03;24.80;99.90
18101;DHT22;9177;49.156;8.142;2023-09-19T03:01:30;24.70;99.90
18101;DHT22;9177;49.156;8.142;2023-09-19T03:03:58;24.70;99.90
18101;DHT22;9177;49.156;8.142;2023-09-19T03:06:25;24.70;99.90
18101;DHT22;9177;49.156;8.142;2023-09-19T03:08:52;24.70;99.90
18101;DHT22;9177;49.156;8.142;2023-09-19T03:11:20;24.70;99.90
18101;DHT22;9177;49.156;8.142;2023-09-19T03:13:51;24.70;99.90
18101;DHT22;9177;49.156;8.142;2023-09-19T03:16:18;24.70;99.90
18101;DHT22;9177;49.156;8.142;2023-09-19T03:18:49;24.70;99.90
18101;DHT22;9177;49.156;8.142;2023-09-19T03:21:16;24.70;99.90
18101;DHT22;9177;49.156;8.142;2023-09-19T03:23:44;24.70;99.90
18101;DHT22;9177;49.156;8.142;2023-09-19T03:26:12;24.70;99.90
18101;DHT22;9177;49.156;8.142;2023-09-19T03:28:41;24.70;99.90
18101;DHT22;9177;49.156;8.142;2023-09-19T03:31:08;24.70;99.90
18101;DHT22;9177;49.156;8.142;2023-09-19T03:33:36;24.70;99.90
18101;DHT22;9177;49.156;8.142;2023-09-19T03:36:04;24.70;99.90
18101;DHT22;9177;49.156;8.142;2023-09-19T03:38:32;24.70;99.90
18101;DHT22;9177;49.156;8.142;2023-09-19T03:41:00;24.70;99.90
18101;DHT22;9177;49.156;8.142;2023-09-19T03:43:26;24.70;99.90
18101;DHT22;9177;49.156;8.142;2023-09-19T03:45:54;24.70;99.90
18101;DHT22;9177;49.156;8.142;2023-09-19T03:48:22;24.70;99.90
18101;DHT22;9177;49.156;8.142;2023-09-19T03:50:48;24.70;99.90
18101;DHT22;9177;49.156;8.142;2023-09-19T03:53:16;24.70;99.90
18101;DHT22;9177;49.156;8.142;2023-09-19T03:55:45;24.70;99.90
18101;DHT22;9177;49.156;8.142;2023-09-19T03:58:12;24.70;99.90
18101;DHT22;9177;49.156;8.142;2023-09-19T04:00:39;24.70;99.90
18101;DHT22;9177;49.156;8.142;2023-09-19T04:03:07;24.70;99.90
18101;DHT22;9177;49.156;8.142;2023-09-19T04:06:01;24.70;99.90
18101;DHT22;9177;49.156;8.142;2023-09-19T04:08:29;24.70;99.90
18101;DHT22;9177;49.156;8.142;2023-09-19T04:10:56;24.70;99.90
18101;DHT22;9177;49.156;8.142;2023-09-19T04:13:23;24.70;99.90
18101;DHT22;9177;49.156;8.142;2023-09-19T04:15:49;24.70;99.90
18101;DHT22;9177;49.156;8.142;2023-09-19T04:18:18;24.60;99.90
18101;DHT22;9177;49.156;8.142;2023-09-19T04:20:48;24.70;99.90
18101;DHT22;9177;49.156;8.142;2023-09-19T04:23:15;24.70;99.90
18101;DHT22;9177;49.156;8.142;2023-09-19T04:25:42;24.70;99.90
18101;DHT22;9177;49.156;8.142;2023-09-19T04:28:09;24.60;99.90
18101;DHT22;9177;49.156;8.142;2023-09-19T04:30:36;24.70;99.90
18101;DHT22;9177;49.156;8.142;2023-09-19T04:33:06;24.70;99.90
18101;DHT22;9177;49.156;8.142;2023-09-19T04:35:34;24.70;99.90
18101;DHT22;9177;49.156;8.142;2023-09-19T04:38:01;24.70;99.90
18101;DHT22;9177;49.156;8.142;2023-09-19T04:40:28;24.60;99.90
18101;DHT22;9177;49.156;8.142;2023-09-19T04:42:56;24.70;99.90
18101;DHT22;9177;49.156;8.142;2023-09-19T04:45:23;24.70;99.90
18101;DHT22;9177;49.156;8.142;2023-09-19T04:47:50;24.60;99.90
18101;DHT22;9177;49.156;8.142;2023-09-19T04:50:17;24.60;99.90
18101;DHT22;9177;49.156;8.142;2023-09-19T04:52:49;24.60;99.90
18101;DHT22;9177;49.156;8.142;2023-09-19T04:55:17;24.60;99.90
18101;DHT22;9177;49.156;8.142;2023-09-19T04:57:45;24.60;99.90
18101;DHT22;9177;49.156;8.142;2023-09-19T05:00:13;24.60;99.90
18101;DHT22;9177;49.156;8.142;2023-09-19T05:02:42;24.60;99.90
18101;DHT22;9177;49.156;8.142;2023-09-19T05:05:10;24.60;99.90
18101;DHT22;9177;49.156;8.142;2023-09-19T05:07:37;24.60;99.90
18101;DHT22;9177;49.156;8.142;2023-09-19T05:10:08;24.60;99.90
18101;DHT22;9177;49.156;8.142;2023-09-19T05:12:37;24.60;99.90
18101;DHT22;9177;49.156;8.142;2023-09-19T05:15:05;24.60;99.90
18101;DHT22;9177;49.156;8.142;2023-09-19T05:17:33;24.60;99.90
18101;DHT22;9177;49.156;8.142;2023-09-19T05:20:00;24.60;99.90
18101;DHT22;9177;49.156;8.142;2023-09-19T05:22:31;24.60;99.90
18101;DHT22;9177;49.156;8.142;2023-09-19T05:24:58;24.60;99.90
18101;DHT22;9177;49.156;8.142;2023-09-19T05:27:26;24.60;99.90
18101;DHT22;9177;49.156;8.142;2023-09-19T05:29:53;24.60;99.90
18101;DHT22;9177;49.156;8.142;2023-09-19T05:32:21;24.60;99.90
18101;DHT22;9177;49.156;8.142;2023-09-19T05:34:48;24.60;99.90
18101;DHT22;9177;49.156;8.142;2023-09-19T05:37:19;24.60;99.90
18101;DHT22;9177;49.156;8.142;2023-09-19T05:39:46;24.60;99.90
18101;DHT22;9177;49.156;8.142;2023-09-19T05:42:13;24.60;99.90
18101;DHT22;9177;49.156;8.142;2023-09-19T05:44:41;24.60;99.90
18101;DHT22;9177;49.156;8.142;2023-09-19T05:47:08;24.60;99.90
18101;DHT22;9177;49.156;8.142;2023-09-19T05:49:35;24.60;99.90
18101;DHT22;9177;49.156;8.142;2023-09-19T05:52:06;24.60;99.90
18101;DHT22;9177;49.156;8.142;2023-09-19T05:54:33;24.60;99.90
18101;DHT22;9177;49.156;8.142;2023-09-19T05:57:00;24.60;99.90
18101;DHT22;9177;49.156;8.142;2023-09-19T05:59:27;24.60;99.90
18101;DHT22;9177;49.156;8.142;2023-09-19T06:01:56;24.60;99.90
18101;DHT22;9177;49.156;8.142;2023-09-19T06:04:22;24.70;99.90
18101;DHT22;9177;49.156;8.142;2023-09-19T06:06:50;24.70;99.90
18101;DHT22;9177;49.156;8.142;2023-09-19T06:09:18;24.60;99.90
18101;DHT22;9177;49.156;8.142;2023-09-19T06:11:45;24.70;99.90
18101;DHT22;9177;49.156;8.142;2023-09-19T06:14:12;24.80;99.90
18101;DHT22;9177;49.156;8.142;2023-09-19T06:16:43;24.80;99.90
18101;DHT22;9177;49.156;8.142;2023-09-19T06:19:12;24.80;99.90
18101;DHT22;9177;49.156;8.142;2023-09-19T06:21:39;24.80;99.90
18101;DHT22;9177;49.156;8.142;2023-09-19T06:24:06;24.80;99.90
18101;DHT22;9177;49.156;8.142;2023-09-19T06:26:33;24.80;99.90
18101;DHT22;9177;49.156;8.142;2023-09-19T06:29:00;24.80;99.90
18101;DHT22;9177;49.156;8.142;2023-09-19T06:31:33;24.80;99.90
18101;DHT22;9177;49.156;8.142;2023-09-19T06:33:59;24.90;99.90
18101;DHT22;9177;49.156;8.142;2023-09-19T06:36:28;24.90;99.90
18101;DHT22;9177;49.156;8.142;2023-09-19T06:38:55;24.90;99.90
18101;DHT22;9177;49.156;8.142;2023-09-19T06:41:22;24.90;99.90
18101;DHT22;9177;49.156;8.142;2023-09-19T06:43:50;24.80;99.90
18101;DHT22;9177;49.156;8.142;2023-09-19T06:46:19;24.80;99.90
18101;DHT22;9177;49.156;8.142;2023-09-19T06:48:46;24.80;99.90
18101;DHT22;9177;49.156;8.142;2023-09-19T06:51:15;24.90;99.90
18101;DHT22;9177;49.156;8.142;2023-09-19T06:53:45;24.90;99.90
18101;DHT22;9177;49.156;8.142;2023-09-19T06:56:12;24.90;99.90
18101;DHT22;9177;49.156;8.142;2023-09-19T06:58:39;24.90;99.90
18101;DHT22;9177;49.156;8.142;2023-09-19T07:01:09;24.90;99.90
18101;DHT22;9177;49.156;8.142;2023-09-19T07:03:35;25.00;99.90
18101;DHT22;9177;49.156;8.142;2023-09-19T07:06:03;25.00;99.90
18101;DHT22;9177;49.156;8.142;2023-09-19T07:08:30;25.00;99.90
18101;DHT22;9177;49.156;8.142;2023-09-19T07:10:58;25.00;99.90
18101;DHT22;9177;49.156;8.142;2023-09-19T07:13:25;25.00;99.90
18101;DHT22;9177;49.156;8.142;2023-09-19T07:15:53;25.10;99.90
18101;DHT22;9177;49.156;8.142;2023-09-19T07:18:20;25.10;99.90
18101;DHT22;9177;49.156;8.142;2023-09-19T07:20:47;25.10;99.90
18101;DHT22;9177;49.156;8.142;2023-09-19T07:23:16;25.20;99.90
18101;DHT22;9177;49.156;8.142;2023-09-19T07:25:43;25.30;99.90
18101;DHT22;9177;49.156;8.142;2023-09-19T07:28:12;25.30;99.90
18101;DHT22;9177;49.156;8.142;2023-09-19T07:30:39;25.20;99.90
18101;DHT22;9177;49.156;8.142;2023-09-19T07:33:07;25.20;99.90
18101;DHT22;9177;49.156;8.142;2023-09-19T07:35:36;25.20;99.90
18101;DHT22;9177;49.156;8.142;2023-09-19T07:38:05;25.20;99.90
18101;DHT22;9177;49.156;8.142;2023-09-19T07:40:33;25.20;99.90
18101;DHT22;9177;49.156;8.142;2023-09-19T07:43:00;25.20;99.90
18101;DHT22;9177;49.156;8.142;2023-09-19T07:45:30;25.20;99.90
18101;DHT22;9177;49.156;8.142;2023-09-19T07:47:58;25.20;99.90
18101;DHT22;9177;49.156;8.142;2023-09-19T07:50:27;25.20;99.90
18101;DHT22;9177;49.156;8.142;2023-09-19T07:52:54;25.20;99.90
18101;DHT22;9177;49.156;8.142;2023-09-19T07:55:22;25.20;99.90
18101;DHT22;9177;49.156;8.142;2023-09-19T07:57:51;25.20;99.90
18101;DHT22;9177;49.156;8.142;2023-09-19T08:00:18;25.20;99.90
18101;DHT22;9177;49.156;8.142;2023-09-19T08:02:47;25.20;99.90
18101;DHT22;9177;49.156;8.142;2023-09-19T08:05:14;25.20;99.90
18101;DHT22;9177;49.156;8.142;2023-09-19T08:07:45;25.30;99.90
18101;DHT22;9177;49.156;8.142;2023-09-19T08:10:15;25.20;99.90
18101;DHT22;9177;49.156;8.142;2023-09-19T08:12:45;25.30;99.90
18101;DHT22;9177;49.156;8.142;2023-09-19T08:15:13;25.30;99.90
18101;DHT22;9177;49.156;8.142;2023-09-19T08:17:41;25.30;99.90
18101;DHT22;9177;49.156;8.142;2023-09-19T08:20:10;25.30;99.90
18101;DHT22;9177;49.156;8.142;2023-09-19T08:22:43;25.20;99.90
18101;DHT22;9177;49.156;8.142;2023-09-19T08:25:12;25.20;99.90
18101;DHT22;9177;49.156;8.142;2023-09-19T08:27:39;25.20;99.90
18101;DHT22;9177;49.156;8.142;2023-09-19T08:30:06;25.20;99.90
18101;DHT22;9177;49.156;8.142;2023-09-19T08:32:34;25.30;99.90
18101;DHT22;9177;49.156;8.142;2023-09-19T08:35:00;25.30;99.90
18101;DHT22;9177;49.156;8.142;2023-09-19T08:37:29;25.30;99.90
18101;DHT22;9177;49.156;8.142;2023-09-19T08:39:55;25.40;99.90
18101;DHT22;9177;49.156;8.142;2023-09-19T08:42:23;25.40;99.90
18101;DHT22;9177;49.156;8.142;2023-09-19T08:44:51;25.40;99.90
18101;DHT22;9177;49.156;8.142;2023-09-19T08:47:26;25.40;99.90
18101;DHT22;9177;49.156;8.142;2023-09-19T08:50:00;25.40;99.90
18101;DHT22;9177;49.156;8.142;2023-09-19T08:52:34;25.40;99.90
18101;DHT22;9177;49.156;8.142;2023-09-19T08:55:06;25.40;99.90
18101;DHT22;9177;49.156;8.142;2023-09-19T08:57:36;25.40;99.90
18101;DHT22;9177;49.156;8.142;2023-09-19T09:00:08;25.40;99.90
18101;DHT22;9177;49.156;8.142;2023-09-19T09:02:38;25.30;99.90
18101;DHT22;9177;49.156;8.142;2023-09-19T09:05:07;25.30;99.90
18101;DHT22;9177;49.156;8.142;2023-09-19T09:07:37;25.30;99.90
18101;DHT22;9177;49.156;8.142;2023-09-19T09:10:05;25.30;99.90
18101;DHT22;9177;49.156;8.142;2023-09-19T09:12:33;25.40;99.90
18101;DHT22;9177;49.156;8.142;2023-09-19T09:15:02;25.40;99.90
18101;DHT22;9177;49.156;8.142;2023-09-19T09:17:29;25.40;99.90
18101;DHT22;9177;49.156;8.142;2023-09-19T09:19:57;25.40;99.90
18101;DHT22;9177;49.156;8.142;2023-09-19T09:22:24;25.40;99.90
18101;DHT22;9177;49.156;8.142;2023-09-19T09:24:53;25.40;99.90
18101;DHT22;9177;49.156;8.142;2023-09-19T09:27:23;25.40;99.90
18101;DHT22;9177;49.156;8.142;2023-09-19T09:29:51;25.40;99.90
18101;DHT22;9177;49.156;8.142;2023-09-19T09:32:21;25.40;99.90
18101;DHT22;9177;49.156;8.142;2023-09-19T09:34:51;25.40;99.90
18101;DHT22;9177;49.156;8.142;2023-09-19T09:37:19;25.40;99.90
18101;DHT22;9177;49.156;8.142;2023-09-19T09:39:49;25.40;99.90
18101;DHT22;9177;49.156;8.142;2023-09-19T09:42:36;25.40;99.90
18101;DHT22;9177;49.156;8.142;2023-09-19T09:45:14;25.40;99.90
18101;DHT22;9177;49.156;8.142;2023-09-19T09:47:42;25.40;99.90
18101;DHT22;9177;49.156;8.142;2023-09-19T09:50:28;25.50;99.90
18101;DHT22;9177;49.156;8.142;2023-09-19T09:53:03;25.50;99.90
18101;DHT22;9177;49.156;8.142;2023-09-19T09:55:57;25.50;99.90
18101;DHT22;9177;49.156;8.142;2023-09-19T09:58:25;25.60;99.90
18101;DHT22;9177;49.156;8.142;2023-09-19T10:00:55;25.60;99.90
18101;DHT22;9177;49.156;8.142;2023-09-19T10:03:31;25.60;99.90
18101;DHT22;9177;49.156;8.142;2023-09-19T10:06:00;25.50;99.90
18101;DHT22;9177;49.156;8.142;2023-09-19T10:08:35;25.50;99.90
18101;DHT22;9177;49.156;8.142;2023-09-19T10:11:15;25.50;99.90
18101;DHT22;9177;49.156;8.142;2023-09-19T10:13:44;25.40;99.90
18101;DHT22;9177;49.156;8.142;2023-09-19T10:16:13;25.30;99.90
18101;DHT22;9177;49.156;8.142;2023-09-19T10:18:42;25.40;99.90
18101;DHT22;9177;49.156;8.142;2023-09-19T10:21:10;25.30;99.50
18101;DHT22;9177;49.156;8.142;2023-09-19T10:23:38;25.30;99.90
18101;DHT22;9177;49.156;8.142;2023-09-19T10:26:08;25.30;99.90
18101;DHT22;9177;49.156;8.142;2023-09-19T10:28:38;25.30;99.70
18101;DHT22;9177;49.156;8.142;2023-09-19T10:31:06;25.30;99.70
18101;DHT22;9177;49.156;8.142;2023-09-19T10:33:36;25.40;99.90
18101;DHT22;9177;49.156;8.142;2023-09-19T10:36:05;25.40;99.40
18101;DHT22;9177;49.156;8.142;2023-09-19T10:38:33;25.40;99.50
18101;DHT22;9177;49.156;8.142;2023-09-19T10:41:01;25.50;99.30
18101;DHT22;9177;49.156;8.142;2023-09-19T10:43:30;25.50;98.90
18101;DHT22;9177;49.156;8.142;2023-09-19T10:46:01;25.50;99.00
18101;DHT22;9177;49.156;8.142;2023-09-19T10:48:31;25.50;98.90
18101;DHT22;9177;49.156;8.142;2023-09-19T10:51:02;25.50;98.70
18101;DHT22;9177;49.156;8.142;2023-09-19T10:53:44;25.50;98.70
18101;DHT22;9177;49.156;8.142;2023-09-19T10:56:19;25.50;98.70
18101;DHT22;9177;49.156;8.142;2023-09-19T10:58:48;25.50;98.50
18101;DHT22;9177;49.156;8.142;2023-09-19T11:01:15;25.50;98.40
18101;DHT22;9177;49.156;8.142;2023-09-19T11:03:45;25.50;98.40
18101;DHT22;9177;49.156;8.142;2023-09-19T11:06:16;25.50;98.50
18101;DHT22;9177;49.156;8.142;2023-09-19T11:08:55;25.50;98.60
18101;DHT22;9177;49.156;8.142;2023-09-19T11:11:49;25.50;98.30
18101;DHT22;9177;49.156;8.142;2023-09-19T11:14:40;25.50;97.80
18101;DHT22;9177;49.156;8.142;2023-09-19T11:17:41;25.60;98.10
18101;DHT22;9177;49.156;8.142;2023-09-19T11:20:25;25.70;97.90
18101;DHT22;9177;49.156;8.142;2023-09-19T11:23:21;25.70;98.00
18101;DHT22;9177;49.156;8.142;2023-09-19T11:25:55;25.70;97.80
18101;DHT22;9177;49.156;8.142;2023-09-19T11:28:32;25.80;97.50
18101;DHT22;9177;49.156;8.142;2023-09-19T11:30:58;25.80;97.50
18101;DHT22;9177;49.156;8.142;2023-09-19T11:33:26;25.90;97.40
18101;DHT22;9177;49.156;8.142;2023-09-19T11:36:02;25.90;97.20
18101;DHT22;9177;49.156;8.142;2023-09-19T11:38:57;26.00;97.10
18101;DHT22;9177;49.156;8.142;2023-09-19T11:41:39;26.00;96.90
18101;DHT22;9177;49.156;8.142;2023-09-19T11:44:32;26.00;96.70
18101;DHT22;9177;49.156;8.142;2023-09-19T11:47:01;26.10;96.80
18101;DHT22;9177;49.156;8.142;2023-09-19T11:49:29;26.10;96.70
18101;DHT22;9177;49.156;8.142;2023-09-19T11:51:59;26.00;96.70
18101;DHT22;9177;49.156;8.142;2023-09-19T11:54:30;26.00;96.70
18101;DHT22;9177;49.156;8.142;2023-09-19T11:56:59;25.90;96.70
18101;DHT22;9177;49.156;8.142;2023-09-19T11:59:27;25.80;96.80
18101;DHT22;9177;49.156;8.142;2023-09-19T12:01:56;25.80;96.80
18101;DHT22;9177;49.156;8.142;2023-09-19T12:04:37;25.80;96.70
18101;DHT22;9177;49.156;8.142;2023-09-19T12:07:08;25.80;96.70
18101;DHT22;9177;49.156;8.142;2023-09-19T12:09:41;25.80;96.70
18101;DHT22;9177;49.156;8.142;2023-09-19T12:12:10;25.80;96.60
18101;DHT22;9177;49.156;8.142;2023-09-19T12:14:41;25.70;96.70
18101;DHT22;9177;49.156;8.142;2023-09-19T12:17:09;25.70;96.70
18101;DHT22;9177;49.156;8.142;2023-09-19T12:19:38;25.70;96.70
18101;DHT22;9177;49.156;8.142;2023-09-19T12:22:07;25.80;96.70
18101;DHT22;9177;49.156;8.142;2023-09-19T12:24:34;25.90;96.60
18101;DHT22;9177;49.156;8.142;2023-09-19T12:27:05;25.90;96.50
18101;DHT22;9177;49.156;8.142;2023-09-19T12:29:41;25.90;96.60
18101;DHT22;9177;49.156;8.142;2023-09-19T12:32:08;25.80;96.60
18101;DHT22;9177;49.156;8.142;2023-09-19T12:34:35;25.90;96.50
18101;DHT22;9177;49.156;8.142;2023-09-19T12:37:10;26.00;96.40
18101;DHT22;9177;49.156;8.142;2023-09-19T12:39:43;26.10;96.20
18101;DHT22;9177;49.156;8.142;2023-09-19T12:42:15;26.10;96.20
18101;DHT22;9177;49.156;8.142;2023-09-19T12:44:43;26.00;96.30
18101;DHT22;9177;49.156;8.142;2023-09-19T12:47:13;26.00;96.40
18101;DHT22;9177;49.156;8.142;2023-09-19T12:50:09;26.00;96.30
18101;DHT22;9177;49.156;8.142;2023-09-19T12:52:43;26.00;96.10
18101;DHT22;9177;49.156;8.142;2023-09-19T12:55:21;26.10;96.00
18101;DHT22;9177;49.156;8.142;2023-09-19T12:58:08;26.10;95.90
18101;DHT22;9177;49.156;8.142;2023-09-19T13:00:37;26.10;96.10
18101;DHT22;9177;49.156;8.142;2023-09-19T13:03:18;26.00;96.10
18101;DHT22;9177;49.156;8.142;2023-09-19T13:05:51;26.00;96.10
18101;DHT22;9177;49.156;8.142;2023-09-19T13:08:23;26.00;96.00
18101;DHT22;9177;49.156;8.142;2023-09-19T13:11:09;26.10;95.90
18101;DHT22;9177;49.156;8.142;2023-09-19T13:13:39;26.30;95.80
18101;DHT22;9177;49.156;8.142;2023-09-19T13:16:09;26.30;95.70
18101;DHT22;9177;49.156;8.142;2023-09-19T13:18:45;26.30;95.70
18101;DHT22;9177;49.156;8.142;2023-09-19T13:21:12;26.30;95.70
18101;DHT22;9177;49.156;8.142;2023-09-19T13:23:50;26.20;95.80
18101;DHT22;9177;49.156;8.142;2023-09-19T13:26:17;26.20;95.80
18101;DHT22;9177;49.156;8.142;2023-09-19T13:28:44;26.10;95.80
18101;DHT22;9177;49.156;8.142;2023-09-19T13:31:13;26.10;95.90
18101;DHT22;9177;49.156;8.142;2023-09-19T13:33:43;26.00;96.00
18101;DHT22;9177;49.156;8.142;2023-09-19T13:36:10;25.90;96.20
18101;DHT22;9177;49.156;8.142;2023-09-19T13:38:39;25.80;96.10
18101;DHT22;9177;49.156;8.142;2023-09-19T13:41:09;25.80;96.20
18101;DHT22;9177;49.156;8.142;2023-09-19T13:43:36;25.80;96.10
18101;DHT22;9177;49.156;8.142;2023-09-19T13:46:05;25.80;96.10
18101;DHT22;9177;49.156;8.142;2023-09-19T13:48:33;25.80;96.10
18101;DHT22;9177;49.156;8.142;2023-09-19T13:51:01;25.90;96.10
18101;DHT22;9177;49.156;8.142;2023-09-19T13:53:29;25.90;96.10
18101;DHT22;9177;49.156;8.142;2023-09-19T13:55:55;25.90;96.00
18101;DHT22;9177;49.156;8.142;2023-09-19T13:58:24;25.90;96.10
18101;DHT22;9177;49.156;8.142;2023-09-19T14:00:53;25.80;96.30
18101;DHT22;9177;49.156;8.142;2023-09-19T14:03:23;25.70;96.40
18101;DHT22;9177;49.156;8.142;2023-09-19T14:05:54;25.70;96.50
18101;DHT22;9177;49.156;8.142;2023-09-19T14:08:21;25.70;96.50
18101;DHT22;9177;49.156;8.142;2023-09-19T14:10:49;25.60;96.70
18101;DHT22;9177;49.156;8.142;2023-09-19T14:13:16;25.60;96.70
18101;DHT22;9177;49.156;8.142;2023-09-19T14:15:44;25.80;96.50
18101;DHT22;9177;49.156;8.142;2023-09-19T14:18:11;25.90;96.30
18101;DHT22;9177;49.156;8.142;2023-09-19T14:20:38;26.00;96.50
18101;DHT22;9177;49.156;8.142;2023-09-19T14:23:07;25.80;96.50
18101;DHT22;9177;49.156;8.142;2023-09-19T14:25:34;25.80;96.70
18101;DHT22;9177;49.156;8.142;2023-09-19T14:28:02;25.80;96.70
18101;DHT22;9177;49.156;8.142;2023-09-19T14:30:29;25.70;96.90
18101;DHT22;9177;49.156;8.142;2023-09-19T14:32:57;25.70;96.90
18101;DHT22;9177;49.156;8.142;2023-09-19T14:35:24;25.70;96.80
18101;DHT22;9177;49.156;8.142;2023-09-19T14:37:54;25.70;96.90
18101;DHT22;9177;49.156;8.142;2023-09-19T14:40:21;25.60;97.00
18101;DHT22;9177;49.156;8.142;2023-09-19T14:42:48;25.60;97.00
18101;DHT22;9177;49.156;8.142;2023-09-19T14:45:15;25.60;97.10
18101;DHT22;9177;49.156;8.142;2023-09-19T14:47:45;25.60;97.00
18101;DHT22;9177;49.156;8.142;2023-09-19T14:50:13;25.60;97.10
18101;DHT22;9177;49.156;8.142;2023-09-19T14:52:41;25.60;96.90
18101;DHT22;9177;49.156;8.142;2023-09-19T14:55:08;25.80;97.20
18101;DHT22;9177;49.156;8.142;2023-09-19T14:57:40;25.80;97.10
18101;DHT22;9177;49.156;8.142;2023-09-19T15:00:10;25.80;97.10
18101;DHT22;9177;49.156;8.142;2023-09-19T15:02:38;25.90;97.10
18101;DHT22;9177;49.156;8.142;2023-09-19T15:05:06;25.90;97.20
18101;DHT22;9177;49.156;8.142;2023-09-19T15:07:35;25.90;97.10
18101;DHT22;9177;49.156;8.142;2023-09-19T15:10:04;25.90;97.00
18101;DHT22;9177;49.156;8.142;2023-09-19T15:12:35;25.80;97.10
18101;DHT22;9177;49.156;8.142;2023-09-19T15:15:03;25.90;97.00
18101;DHT22;9177;49.156;8.142;2023-09-19T15:17:32;25.90;97.10
18101;DHT22;9177;49.156;8.142;2023-09-19T15:19:59;25.90;97.10
18101;DHT22;9177;49.156;8.142;2023-09-19T15:22:27;25.90;97.00
18101;DHT22;9177;49.156;8.142;2023-09-19T15:24:55;26.00;97.00
18101;DHT22;9177;49.156;8.142;2023-09-19T15:27:22;26.00;97.00
18101;DHT22;9177;49.156;8.142;2023-09-19T15:29:49;26.00;97.00
18101;DHT22;9177;49.156;8.142;2023-09-19T15:32:16;26.00;97.00
18101;DHT22;9177;49.156;8.142;2023-09-19T15:34:43;25.90;97.00
18101;DHT22;9177;49.156;8.142;2023-09-19T15:37:10;25.80;97.50
18101;DHT22;9177;49.156;8.142;2023-09-19T15:39:37;25.80;97.00
18101;DHT22;9177;49.156;8.142;2023-09-19T15:42:05;25.80;97.10
18101;DHT22;9177;49.156;8.142;2023-09-19T15:44:32;25.80;97.00
18101;DHT22;9177;49.156;8.142;2023-09-19T15:46:59;25.80;96.90
18101;DHT22;9177;49.156;8.142;2023-09-19T15:49:26;25.80;97.00
18101;DHT22;9177;49.156;8.142;2023-09-19T15:51:54;25.90;97.00
18101;DHT22;9177;49.156;8.142;2023-09-19T15:54:20;25.90;97.00
18101;DHT22;9177;49.156;8.142;2023-09-19T15:56:48;26.00;97.00
18101;DHT22;9177;49.156;8.142;2023-09-19T15:59:18;26.00;96.90
18101;DHT22;9177;49.156;8.142;2023-09-19T16:01:45;26.00;96.90